sensor_id;sensor_type;location;lat;lon;timestamp;temperature;humidity
17172;DHT22;8701;50.150;8.756;2022-11-15T00:01:20;9.90;99.90
17172;DHT22;8701;50.150;8.756;2022-11-15T00:05:41;9.90;99.90
17172;DHT22;8701;50.150;8.756;2022-11-15T00:10:04;9.90;99.90
17172;DHT22;8701;50.150;8.756;2022-11-15T00:14:25;9.90;99.90
17172;DHT22;8701;50.150;8.756;2022-11-15T00:18:46;9.80;99.90
17172;DHT22;8701;50.150;8.756;2022-11-15T00:23:07;9.80;99.90
17172;DHT22;8701;50.150;8.756;2022-11-15T00:27:29;9.90;99.90
17172;DHT22;8701;50.150;8.756;2022-11-15T00:31:50;9.80;99.90
17172;DHT22;8701;50.150;8.756;2022-11-15T00:36:12;9.80;99.90
17172;DHT22;8701;50.150;8.756;2022-11-15T00:40:33;9.80;99.90
17172;DHT22;8701;50.150;8.756;2022-11-15T00:44:55;9.80;99.90
17172;DHT22;8701;50.150;8.756;2022-11-15T00:49:16;9.70;99.90
17172;DHT22;8701;50.150;8.756;2022-11-15T00:53:37;9.70;99.90
17172;DHT22;8701;50.150;8.756;2022-11-15T00:57:58;9.70;99.90
17172;DHT22;8701;50.150;8.756;2022-11-15T01:02:20;9.70;99.90
17172;DHT22;8701;50.150;8.756;2022-11-15T01:06:41;9.70;99.90
17172;DHT22;8701;50.150;8.756;2022-11-15T01:11:02;9.70;99.90
17172;DHT22;8701;50.150;8.756;2022-11-15T01:15:23;9.70;99.90
17172;DHT22;8701;50.150;8.756;2022-11-15T01:19:45;9.70;99.90
17172;DHT22;8701;50.150;8.756;2022-11-15T01:24:08;9.70;99.90
17172;DHT22;8701;50.150;8.756;2022-11-15T01:28:33;9.80;99.90
17172;DHT22;8701;50.150;8.756;2022-11-15T01:32:55;9.80;99.90
17172;DHT22;8701;50.150;8.756;2022-11-15T01:37:17;9.90;99.90
17172;DHT22;8701;50.150;8.756;2022-11-15T01:41:38;9.90;99.90
17172;DHT22;8701;50.150;8.756;2022-11-15T01:46:02;9.90;99.90
17172;DHT22;8701;50.150;8.756;2022-11-15T01:50:26;9.90;99.90
17172;DHT22;8701;50.150;8.756;2022-11-15T01:54:54;9.90;99.90
17172;DHT22;8701;50.150;8.756;2022-11-15T01:59:17;10.00;99.90
17172;DHT22;8701;50.150;8.756;2022-11-15T02:03:42;10.00;99.90
17172;DHT22;8701;50.150;8.756;2022-11-15T02:08:08;10.10;99.90
17172;DHT22;8701;50.150;8.756;2022-11-15T02:12:41;10.00;99.90
17172;DHT22;8701;50.150;8.756;2022-11-15T02:17:11;10.20;99.90
17172;DHT22;8701;50.150;8.756;2022-11-15T02:21:41;10.20;99.90
17172;DHT22;8701;50.150;8.756;2022-11-15T02:26:25;10.30;99.90
17172;DHT22;8701;50.150;8.756;2022-11-15T02:30:54;10.30;99.90
17172;DHT22;8701;50.150;8.756;2022-11-15T02:35:23;10.30;99.90
17172;DHT22;8701;50.150;8.756;2022-11-15T02:39:51;10.30;99.90
17172;DHT22;8701;50.150;8.756;2022-11-15T02:44:17;10.40;99.90
17172;DHT22;8701;50.150;8.756;2022-11-15T02:48:41;10.40;99.90
17172;DHT22;8701;50.150;8.756;2022-11-15T02:53:03;10.40;99.90
17172;DHT22;8701;50.150;8.756;2022-11-15T02:57:42;10.40;99.90
17172;DHT22;8701;50.150;8.756;2022-11-15T03:02:15;10.40;99.90
17172;DHT22;8701;50.150;8.756;2022-11-15T03:06:44;10.40;99.90
17172;DHT22;8701;50.150;8.756;2022-11-15T03:11:10;10.30;99.90
17172;DHT22;8701;50.150;8.756;2022-11-15T03:15:42;10.20;99.90
17172;DHT22;8701;50.150;8.756;2022-11-15T03:20:05;10.10;99.90
17172;DHT22;8701;50.150;8.756;2022-11-15T03:24:29;10.00;99.90
17172;DHT22;8701;50.150;8.756;2022-11-15T03:28:54;10.00;99.90
17172;DHT22;8701;50.150;8.756;2022-11-15T03:33:16;9.90;99.90
17172;DHT22;8701;50.150;8.756;2022-11-15T03:37:41;9.80;99.90
17172;DHT22;8701;50.150;8.756;2022-11-15T03:42:14;9.70;99.90
17172;DHT22;8701;50.150;8.756;2022-11-15T03:46:41;9.70;99.90
17172;DHT22;8701;50.150;8.756;2022-11-15T03:51:05;9.70;99.90
17172;DHT22;8701;50.150;8.756;2022-11-15T03:55:26;9.60;99.90
17172;DHT22;8701;50.150;8.756;2022-11-15T03:59:48;9.60;99.90
17172;DHT22;8701;50.150;8.756;2022-11-15T04:04:09;9.60;99.90
17172;DHT22;8701;50.150;8.756;2022-11-15T04:08:30;9.50;99.90
17172;DHT22;8701;50.150;8.756;2022-11-15T04:12:51;9.50;99.90
17172;DHT22;8701;50.150;8.756;2022-11-15T04:17:13;9.50;99.90
17172;DHT22;8701;50.150;8.756;2022-11-15T04:21:34;9.70;99.90
17172;DHT22;8701;50.150;8.756;2022-11-15T04:26:17;9.70;99.90
17172;DHT22;8701;50.150;8.756;2022-11-15T04:30:39;9.80;99.90
17172;DHT22;8701;50.150;8.756;2022-11-15T04:35:01;9.80;99.90
17172;DHT22;8701;50.150;8.756;2022-11-15T04:39:22;9.80;99.90
17172;DHT22;8701;50.150;8.756;2022-11-15T04:43:43;9.70;99.90
17172;DHT22;8701;50.150;8.756;2022-11-15T04:48:04;9.80;99.90
17172;DHT22;8701;50.150;8.756;2022-11-15T04:52:27;9.80;99.90
17172;DHT22;8701;50.150;8.756;2022-11-15T04:56:48;9.80;99.90
17172;DHT22;8701;50.150;8.756;2022-11-15T05:01:09;9.90;99.90
17172;DHT22;8701;50.150;8.756;2022-11-15T05:05:31;9.90;99.90
17172;DHT22;8701;50.150;8.756;2022-11-15T05:09:53;9.90;99.90
17172;DHT22;8701;50.150;8.756;2022-11-15T05:14:15;10.00;99.90
17172;DHT22;8701;50.150;8.756;2022-11-15T05:18:36;10.00;99.90
17172;DHT22;8701;50.150;8.756;2022-11-15T05:23:00;10.10;99.90
17172;DHT22;8701;50.150;8.756;2022-11-15T05:27:22;10.10;99.90
17172;DHT22;8701;50.150;8.756;2022-11-15T05:31:43;10.10;99.90
17172;DHT22;8701;50.150;8.756;2022-11-15T05:36:06;10.00;99.90
17172;DHT22;8701;50.150;8.756;2022-11-15T05:40:28;10.00;99.90
17172;DHT22;8701;50.150;8.756;2022-11-15T05:44:52;10.00;99.90
17172;DHT22;8701;50.150;8.756;2022-11-15T05:49:14;10.00;99.90
17172;DHT22;8701;50.150;8.756;2022-11-15T05:53:37;10.00;99.90
17172;DHT22;8701;50.150;8.756;2022-11-15T05:57:58;9.90;99.90
17172;DHT22;8701;50.150;8.756;2022-11-15T06:02:20;9.90;99.90
17172;DHT22;8701;50.150;8.756;2022-11-15T06:06:41;9.90;99.90
17172;DHT22;8701;50.150;8.756;2022-11-15T06:11:05;9.90;99.90
17172;DHT22;8701;50.150;8.756;2022-11-15T06:15:26;9.90;99.90
17172;DHT22;8701;50.150;8.756;2022-11-15T06:19:49;10.00;99.90
17172;DHT22;8701;50.150;8.756;2022-11-15T06:24:09;10.00;99.90
17172;DHT22;8701;50.150;8.756;2022-11-15T06:28:31;10.00;99.90
17172;DHT22;8701;50.150;8.756;2022-11-15T06:32:58;10.00;99.90
17172;DHT22;8701;50.150;8.756;2022-11-15T06:37:21;10.00;99.90
17172;DHT22;8701;50.150;8.756;2022-11-15T06:41:42;10.10;99.90
17172;DHT22;8701;50.150;8.756;2022-11-15T06:46:04;10.10;99.90
17172;DHT22;8701;50.150;8.756;2022-11-15T06:50:26;10.10;99.90
17172;DHT22;8701;50.150;8.756;2022-11-15T06:54:48;10.10;99.90
17172;DHT22;8701;50.150;8.756;2022-11-15T06:59:09;10.20;99.90
17172;DHT22;8701;50.150;8.756;2022-11-15T07:03:30;10.20;99.90
17172;DHT22;8701;50.150;8.756;2022-11-15T07:07:52;10.20;99.90
17172;DHT22;8701;50.150;8.756;2022-11-15T07:12:14;10.20;99.90
17172;DHT22;8701;50.150;8.756;2022-11-15T07:16:36;10.20;99.90
17172;DHT22;8701;50.150;8.756;2022-11-15T07:21:00;10.50;99.90
17172;DHT22;8701;50.150;8.756;2022-11-15T07:25:21;10.30;99.90
17172;DHT22;8701;50.150;8.756;2022-11-15T07:29:43;10.40;99.90
17172;DHT22;8701;50.150;8.756;2022-11-15T07:34:04;10.50;99.90
17172;DHT22;8701;50.150;8.756;2022-11-15T07:38:25;10.50;99.90
17172;DHT22;8701;50.150;8.756;2022-11-15T07:42:46;10.70;99.90
17172;DHT22;8701;50.150;8.756;2022-11-15T07:47:14;10.70;99.90
17172;DHT22;8701;50.150;8.756;2022-11-15T07:51:35;10.80;99.90
17172;DHT22;8701;50.150;8.756;2022-11-15T07:55:56;10.90;99.90
17172;DHT22;8701;50.150;8.756;2022-11-15T08:00:18;11.00;99.90
17172;DHT22;8701;50.150;8.756;2022-11-15T08:04:40;11.00;99.90
17172;DHT22;8701;50.150;8.756;2022-11-15T08:09:01;11.10;99.90
17172;DHT22;8701;50.150;8.756;2022-11-15T08:13:22;11.20;99.90
17172;DHT22;8701;50.150;8.756;2022-11-15T08:17:43;11.30;99.90
17172;DHT22;8701;50.150;8.756;2022-11-15T08:22:07;11.30;99.90
17172;DHT22;8701;50.150;8.756;2022-11-15T08:26:28;11.30;99.90
17172;DHT22;8701;50.150;8.756;2022-11-15T08:30:49;11.30;99.90
17172;DHT22;8701;50.150;8.756;2022-11-15T08:35:10;11.30;99.90
17172;DHT22;8701;50.150;8.756;2022-11-15T08:39:33;11.30;99.90
17172;DHT22;8701;50.150;8.756;2022-11-15T08:43:54;11.30;99.90
17172;DHT22;8701;50.150;8.756;2022-11-15T08:48:15;11.40;99.90
17172;DHT22;8701;50.150;8.756;2022-11-15T08:52:36;11.40;99.90
17172;DHT22;8701;50.150;8.756;2022-11-15T08:56:58;11.40;99.90
17172;DHT22;8701;50.150;8.756;2022-11-15T09:01:20;11.50;99.90
17172;DHT22;8701;50.150;8.756;2022-11-15T09:05:41;11.50;99.90
17172;DHT22;8701;50.150;8.756;2022-11-15T09:10:02;11.50;99.90
17172;DHT22;8701;50.150;8.756;2022-11-15T09:14:26;11.60;99.90
17172;DHT22;8701;50.150;8.756;2022-11-15T09:18:47;11.60;99.90
17172;DHT22;8701;50.150;8.756;2022-11-15T09:23:07;11.80;99.90
17172;DHT22;8701;50.150;8.756;2022-11-15T09:27:29;11.90;99.90
17172;DHT22;8701;50.150;8.756;2022-11-15T09:31:53;12.10;99.90
17172;DHT22;8701;50.150;8.756;2022-11-15T09:36:13;12.20;99.90
17172;DHT22;8701;50.150;8.756;2022-11-15T09:40:37;12.40;99.90
17172;DHT22;8701;50.150;8.756;2022-11-15T09:45:08;12.70;99.90
17172;DHT22;8701;50.150;8.756;2022-11-15T09:49:33;12.70;99.90
17172;DHT22;8701;50.150;8.756;2022-11-15T09:53:56;12.70;99.90
17172;DHT22;8701;50.150;8.756;2022-11-15T09:58:10;12.60;99.90
17172;DHT22;8701;50.150;8.756;2022-11-15T10:02:27;12.70;99.90
17172;DHT22;8701;50.150;8.756;2022-11-15T10:06:35;12.80;99.90
17172;DHT22;8701;50.150;8.756;2022-11-15T10:10:42;12.90;99.90
17172;DHT22;8701;50.150;8.756;2022-11-15T10:14:45;13.00;99.90
17172;DHT22;8701;50.150;8.756;2022-11-15T10:18:56;13.20;99.90
17172;DHT22;8701;50.150;8.756;2022-11-15T10:23:06;13.50;99.90
17172;DHT22;8701;50.150;8.756;2022-11-15T10:27:11;13.90;99.90
17172;DHT22;8701;50.150;8.756;2022-11-15T10:31:25;14.10;99.90
17172;DHT22;8701;50.150;8.756;2022-11-15T10:35:29;14.20;99.90
17172;DHT22;8701;50.150;8.756;2022-11-15T10:39:33;14.20;99.90
17172;DHT22;8701;50.150;8.756;2022-11-15T10:43:35;14.20;99.90
17172;DHT22;8701;50.150;8.756;2022-11-15T10:47:37;14.20;99.90
17172;DHT22;8701;50.150;8.756;2022-11-15T10:51:42;14.20;99.90
17172;DHT22;8701;50.150;8.756;2022-11-15T10:55:50;14.10;99.90
17172;DHT22;8701;50.150;8.756;2022-11-15T10:59:55;14.20;99.90
17172;DHT22;8701;50.150;8.756;2022-11-15T11:03:59;14.30;99.90
17172;DHT22;8701;50.150;8.756;2022-11-15T11:08:04;14.50;99.90
17172;DHT22;8701;50.150;8.756;2022-11-15T11:12:11;14.50;99.90
17172;DHT22;8701;50.150;8.756;2022-11-15T11:16:26;14.50;99.90
17172;DHT22;8701;50.150;8.756;2022-11-15T11:20:36;14.50;99.90
17172;DHT22;8701;50.150;8.756;2022-11-15T11:24:44;14.50;99.90
17172;DHT22;8701;50.150;8.756;2022-11-15T11:28:56;14.60;99.90
17172;DHT22;8701;50.150;8.756;2022-11-15T11:33:13;14.60;99.90
17172;DHT22;8701;50.150;8.756;2022-11-15T11:37:24;14.80;99.90
17172;DHT22;8701;50.150;8.756;2022-11-15T11:41:53;15.10;99.90
17172;DHT22;8701;50.150;8.756;2022-11-15T11:46:13;15.10;99.90
17172;DHT22;8701;50.150;8.756;2022-11-15T11:50:19;15.40;99.90
17172;DHT22;8701;50.150;8.756;2022-11-15T11:54:25;16.20;99.90
17172;DHT22;8701;50.150;8.756;2022-11-15T11:58:34;16.40;99.90
17172;DHT22;8701;50.150;8.756;2022-11-15T12:02:42;16.00;99.90
17172;DHT22;8701;50.150;8.756;2022-11-15T12:06:49;15.80;99.90
17172;DHT22;8701;50.150;8.756;2022-11-15T12:10:57;15.50;99.90
17172;DHT22;8701;50.150;8.756;2022-11-15T12:15:04;15.30;99.90
17172;DHT22;8701;50.150;8.756;2022-11-15T12:19:12;15.20;99.90
17172;DHT22;8701;50.150;8.756;2022-11-15T12:23:17;15.30;99.90
17172;DHT22;8701;50.150;8.756;2022-11-15T12:27:31;15.60;99.90
17172;DHT22;8701;50.150;8.756;2022-11-15T12:31:38;15.60;99.90
17172;DHT22;8701;50.150;8.756;2022-11-15T12:35:43;15.60;99.90
17172;DHT22;8701;50.150;8.756;2022-11-15T12:40:17;15.50;99.90
17172;DHT22;8701;50.150;8.756;2022-11-15T12:48:57;15.50;99.90
17172;DHT22;8701;50.150;8.756;2022-11-15T12:53:30;15.50;99.90
17172;DHT22;8701;50.150;8.756;2022-11-15T12:57:41;15.50;99.90
17172;DHT22;8701;50.150;8.756;2022-11-15T13:01:57;15.30;99.90
17172;DHT22;8701;50.150;8.756;2022-11-15T13:06:36;15.20;99.90
17172;DHT22;8701;50.150;8.756;2022-11-15T13:10:41;15.00;99.90
17172;DHT22;8701;50.150;8.756;2022-11-15T13:14:46;15.00;99.90
17172;DHT22;8701;50.150;8.756;2022-11-15T13:18:54;14.90;99.90
17172;DHT22;8701;50.150;8.756;2022-11-15T13:23:07;15.00;99.90
17172;DHT22;8701;50.150;8.756;2022-11-15T13:27:15;15.00;99.90
17172;DHT22;8701;50.150;8.756;2022-11-15T13:31:29;14.90;99.90
17172;DHT22;8701;50.150;8.756;2022-11-15T13:35:33;14.70;99.90
17172;DHT22;8701;50.150;8.756;2022-11-15T13:39:38;14.70;99.90
17172;DHT22;8701;50.150;8.756;2022-11-15T13:43:42;14.70;99.90
17172;DHT22;8701;50.150;8.756;2022-11-15T13:47:51;14.70;99.90
17172;DHT22;8701;50.150;8.756;2022-11-15T13:51:54;14.70;99.90
17172;DHT22;8701;50.150;8.756;2022-11-15T13:55:57;14.70;99.90
17172;DHT22;8701;50.150;8.756;2022-11-15T14:00:04;14.70;99.90
17172;DHT22;8701;50.150;8.756;2022-11-15T14:04:17;14.60;99.90
17172;DHT22;8701;50.150;8.756;2022-11-15T14:08:23;14.60;99.90
17172;DHT22;8701;50.150;8.756;2022-11-15T14:12:29;14.60;99.90
17172;DHT22;8701;50.150;8.756;2022-11-15T14:16:35;14.60;99.90
17172;DHT22;8701;50.150;8.756;2022-11-15T14:20:38;14.60;99.90
17172;DHT22;8701;50.150;8.756;2022-11-15T14:24:43;14.50;99.90
17172;DHT22;8701;50.150;8.756;2022-11-15T14:28:46;14.50;99.90
17172;DHT22;8701;50.150;8.756;2022-11-15T14:32:50;14.50;99.90
17172;DHT22;8701;50.150;8.756;2022-11-15T14:36:53;14.60;99.90
17172;DHT22;8701;50.150;8.756;2022-11-15T14:40:55;14.40;99.90
17172;DHT22;8701;50.150;8.756;2022-11-15T14:44:57;14.40;99.90
17172;DHT22;8701;50.150;8.756;2022-11-15T14:49:01;14.30;99.90
17172;DHT22;8701;50.150;8.756;2022-11-15T14:53:04;14.20;99.90
17172;DHT22;8701;50.150;8.756;2022-11-15T14:57:06;14.10;99.90
17172;DHT22;8701;50.150;8.756;2022-11-15T15:01:13;14.10;99.90
17172;DHT22;8701;50.150;8.756;2022-11-15T15:05:19;14.10;99.90
17172;DHT22;8701;50.150;8.756;2022-11-15T15:09:22;14.10;99.90
17172;DHT22;8701;50.150;8.756;2022-11-15T15:13:24;14.00;99.90
17172;DHT22;8701;50.150;8.756;2022-11-15T15:17:27;13.90;99.90
17172;DHT22;8701;50.150;8.756;2022-11-15T15:21:30;13.90;99.90
17172;DHT22;8701;50.150;8.756;2022-11-15T15:25:34;13.80;99.90
17172;DHT22;8701;50.150;8.756;2022-11-15T15:29:37;13.70;99.90
17172;DHT22;8701;50.150;8.756;2022-11-15T15:33:39;13.60;99.90
17172;DHT22;8701;50.150;8.756;2022-11-15T15:37:43;13.50;99.90
17172;DHT22;8701;50.150;8.756;2022-11-15T15:41:46;13.40;99.90
17172;DHT22;8701;50.150;8.756;2022-11-15T15:45:48;13.40;99.90
17172;DHT22;8701;50.150;8.756;2022-11-15T15:49:51;13.30;99.90
17172;DHT22;8701;50.150;8.756;2022-11-15T15:53:54;13.30;99.90
17172;DHT22;8701;50.150;8.756;2022-11-15T15:57:58;13.40;99.90
17172;DHT22;8701;50.150;8.756;2022-11-15T16:02:00;13.20;99.90
17172;DHT22;8701;50.150;8.756;2022-11-15T16:06:03;13.30;99.90
17172;DHT22;8701;50.150;8.756;2022-11-15T16:10:18;13.20;99.90
17172;DHT22;8701;50.150;8.756;2022-11-15T16:14:20;13.20;99.90
17172;DHT22;8701;50.150;8.756;2022-11-15T16:18:22;13.20;99.90
17172;DHT22;8701;50.150;8.756;2022-11-15T16:22:25;13.10;99.90
17172;DHT22;8701;50.150;8.756;2022-11-15T16:26:29;13.10;99.90
17172;DHT22;8701;50.150;8.756;2022-11-15T16:30:32;13.10;99.90
17172;DHT22;8701;50.150;8.756;2022-11-15T16:34:34;13.10;99.90
17172;DHT22;8701;50.150;8.756;2022-11-15T16:38:36;13.20;99.90
17172;DHT22;8701;50.150;8.756;2022-11-15T16:42:41;13.10;99.90
17172;DHT22;8701;50.150;8.756;2022-11-15T16:46:43;13.10;99.90
17172;DHT22;8701;50.150;8.756;2022-11-15T16:50:55;13.10;99.90
17172;DHT22;8701;50.150;8.756;2022-11-15T16:54:58;13.00;99.90
17172;DHT22;8701;50.150;8.756;2022-11-15T16:59:01;13.00;99.90
17172;DHT22;8701;50.150;8.756;2022-11-15T17:03:03;13.20;99.90
17172;DHT22;8701;50.150;8.756;2022-11-15T17:07:07;12.90;99.90
17172;DHT22;8701;50.150;8.756;2022-11-15T17:11:14;12.90;99.90
17172;DHT22;8701;50.150;8.756;2022-11-15T17:15:19;12.80;99.90
17172;DHT22;8701;50.150;8.756;2022-11-15T17:19:25;12.80;99.90
17172;DHT22;8701;50.150;8.756;2022-11-15T17:24:02;12.70;99.90
17172;DHT22;8701;50.150;8.756;2022-11-15T17:28:07;12.60;99.90
17172;DHT22;8701;50.150;8.756;2022-11-15T17:32:11;12.60;99.90
17172;DHT22;8701;50.150;8.756;2022-11-15T17:36:14;12.60;99.90
17172;DHT22;8701;50.150;8.756;2022-11-15T17:40:16;12.50;99.90
17172;DHT22;8701;50.150;8.756;2022-11-15T17:44:18;12.60;99.90
17172;DHT22;8701;50.150;8.756;2022-11-15T17:48:22;12.60;99.90
17172;DHT22;8701;50.150;8.756;2022-11-15T17:52:24;12.40;99.90
17172;DHT22;8701;50.150;8.756;2022-11-15T17:56:27;12.60;99.90
17172;DHT22;8701;50.150;8.756;2022-11-15T18:00:30;12.60;99.90
17172;DHT22;8701;50.150;8.756;2022-11-15T18:04:34;12.50;99.90
17172;DHT22;8701;50.150;8.756;2022-11-15T18:08:39;12.60;99.90
17172;DHT22;8701;50.150;8.756;2022-11-15T18:12:41;12.60;99.90
17172;DHT22;8701;50.150;8.756;2022-11-15T18:16:43;12.60;99.90
17172;DHT22;8701;50.150;8.756;2022-11-15T18:20:47;12.60;99.90
17172;DHT22;8701;50.150;8.756;2022-11-15T18:24:49;12.60;99.90
17172;DHT22;8701;50.150;8.756;2022-11-15T18:28:53;12.60;99.90
17172;DHT22;8701;50.150;8.756;2022-11-15T18:33:02;12.60;99.90
17172;DHT22;8701;50.150;8.756;2022-11-15T18:37:06;12.60;99.90
17172;DHT22;8701;50.150;8.756;2022-11-15T18:41:14;12.60;99.90
17172;DHT22;8701;50.150;8.756;2022-11-15T18:45:20;12.60;99.90
17172;DHT22;8701;50.150;8.756;2022-11-15T18:49:25;12.60;99.90
17172;DHT22;8701;50.150;8.756;2022-11-15T18:53:29;12.60;99.90
17172;DHT22;8701;50.150;8.756;2022-11-15T18:57:31;12.60;99.90
17172;DHT22;8701;50.150;8.756;2022-11-15T19:01:35;12.60;99.90
17172;DHT22;8701;50.150;8.756;2022-11-15T19:05:41;12.50;99.90
17172;DHT22;8701;50.150;8.756;2022-11-15T19:09:46;12.60;99.90
17172;DHT22;8701;50.150;8.756;2022-11-15T19:13:51;12.50;99.90
17172;DHT22;8701;50.150;8.756;2022-11-15T19:17:54;12.50;99.90
17172;DHT22;8701;50.150;8.756;2022-11-15T19:21:56;12.70;99.90
17172;DHT22;8701;50.150;8.756;2022-11-15T19:26:01;12.50;99.90
17172;DHT22;8701;50.150;8.756;2022-11-15T19:30:06;12.40;99.90
17172;DHT22;8701;50.150;8.756;2022-11-15T19:34:09;12.50;99.90
17172;DHT22;8701;50.150;8.756;2022-11-15T19:38:13;12.40;99.90
17172;DHT22;8701;50.150;8.756;2022-11-15T19:42:16;12.50;99.90
17172;DHT22;8701;50.150;8.756;2022-11-15T19:46:20;12.50;99.90
17172;DHT22;8701;50.150;8.756;2022-11-15T19:50:24;12.50;99.90
17172;DHT22;8701;50.150;8.756;2022-11-15T19:54:26;12.50;99.90
17172;DHT22;8701;50.150;8.756;2022-11-15T19:58:30;12.50;99.90
17172;DHT22;8701;50.150;8.756;2022-11-15T20:02:33;12.60;99.90
17172;DHT22;8701;50.150;8.756;2022-11-15T20:06:37;12.50;99.90
17172;DHT22;8701;50.150;8.756;2022-11-15T20:10:42;12.50;99.90
17172;DHT22;8701;50.150;8.756;2022-11-15T20:14:47;12.50;99.90
17172;DHT22;8701;50.150;8.756;2022-11-15T20:19:06;12.40;99.90
17172;DHT22;8701;50.150;8.756;2022-11-15T20:23:09;12.40;99.90
17172;DHT22;8701;50.150;8.756;2022-11-15T20:27:12;12.50;99.90
17172;DHT22;8701;50.150;8.756;2022-11-15T20:31:16;12.40;99.90
17172;DHT22;8701;50.150;8.756;2022-11-15T20:35:18;12.40;99.90
17172;DHT22;8701;50.150;8.756;2022-11-15T20:39:21;12.30;99.90
17172;DHT22;8701;50.150;8.756;2022-11-15T20:43:23;12.40;99.90
17172;DHT22;8701;50.150;8.756;2022-11-15T20:47:28;12.40;99.90
17172;DHT22;8701;50.150;8.756;2022-11-15T20:51:31;12.50;99.90
17172;DHT22;8701;50.150;8.756;2022-11-15T20:55:38;12.20;99.90
17172;DHT22;8701;50.150;8.756;2022-11-15T20:59:41;12.30;99.90
17172;DHT22;8701;50.150;8.756;2022-11-15T21:03:45;12.30;99.90
17172;DHT22;8701;50.150;8.756;2022-11-15T21:07:48;12.30;99.90
17172;DHT22;8701;50.150;8.756;2022-11-15T21:11:50;12.20;99.90
17172;DHT22;8701;50.150;8.756;2022-11-15T21:16:10;12.20;99.90
17172;DHT22;8701;50.150;8.756;2022-11-15T21:20:15;12.20;99.90
17172;DHT22;8701;50.150;8.756;2022-11-15T21:24:17;12.20;99.90
17172;DHT22;8701;50.150;8.756;2022-11-15T21:28:20;12.40;99.90
17172;DHT22;8701;50.150;8.756;2022-11-15T21:32:22;12.20;99.90
17172;DHT22;8701;50.150;8.756;2022-11-15T21:36:26;12.40;99.90
17172;DHT22;8701;50.150;8.756;2022-11-15T21:40:29;12.20;99.90
17172;DHT22;8701;50.150;8.756;2022-11-15T21:44:32;12.20;99.90
17172;DHT22;8701;50.150;8.756;2022-11-15T21:48:35;12.10;99.90
17172;DHT22;8701;50.150;8.756;2022-11-15T21:52:38;12.10;99.90
17172;DHT22;8701;50.150;8.756;2022-11-15T21:56:42;12.00;99.90
17172;DHT22;8701;50.150;8.756;2022-11-15T22:00:45;12.10;99.90
17172;DHT22;8701;50.150;8.756;2022-11-15T22:05:05;12.10;99.90
17172;DHT22;8701;50.150;8.756;2022-11-15T22:09:09;12.10;99.90
17172;DHT22;8701;50.150;8.756;2022-11-15T22:13:11;12.10;99.90
17172;DHT22;8701;50.150;8.756;2022-11-15T22:17:14;12.00;99.90
17172;DHT22;8701;50.150;8.756;2022-11-15T22:21:17;12.00;99.90
17172;DHT22;8701;50.150;8.756;2022-11-15T22:25:21;12.00;99.90
17172;DHT22;8701;50.150;8.756;2022-11-15T22:29:26;11.90;99.90
17172;DHT22;8701;50.150;8.756;2022-11-15T22:33:30;12.00;99.90
17172;DHT22;8701;50.150;8.756;2022-11-15T22:37:32;12.00;99.90
17172;DHT22;8701;50.150;8.756;2022-11-15T22:41:37;11.90;99.90
17172;DHT22;8701;50.150;8.756;2022-11-15T22:45:46;12.20;99.90
17172;DHT22;8701;50.150;8.756;2022-11-15T22:49:54;12.00;99.90
17172;DHT22;8701;50.150;8.756;2022-11-15T22:53:59;12.00;99.90
17172;DHT22;8701;50.150;8.756;2022-11-15T22:58:03;12.00;99.90
17172;DHT22;8701;50.150;8.756;2022-11-15T23:02:05;12.00;99.90
17172;DHT22;8701;50.150;8.756;2022-11-15T23:06:08;12.00;99.90
17172;DHT22;8701;50.150;8.756;2022-11-15T23:10:11;11.90;99.90
17172;DHT22;8701;50.150;8.756;2022-11-15T23:14:33;11.90;99.90
17172;DHT22;8701;50.150;8.756;2022-11-15T23:18:39;11.90;99.90
17172;DHT22;8701;50.150;8.756;2022-11-15T23:22:44;11.90;99.90
17172;DHT22;8701;50.150;8.756;2022-11-15T23:26:51;11.90;99.90
17172;DHT22;8701;50.150;8.756;2022-11-15T23:31:01;11.90;99.90
17172;DHT22;8701;50.150;8.756;2022-11-15T23:35:21;11.90;99.90
17172;DHT22;8701;50.150;8.756;2022-11-15T23:39:26;11.90;99.90
17172;DHT22;8701;50.150;8.756;2022-11-15T23:43:28;11.90;99.90
17172;DHT22;8701;50.150;8.756;2022-11-15T23:47:32;11.90;99.90
17172;DHT22;8701;50.150;8.756;2022-11-15T23:51:35;11.90;99.90
17172;DHT22;8701;50.150;8.756;2022-11-15T23:55:37;11.80;99.90
17172;DHT22;8701;50.150;8.756;2022-11-15T23:59:43;11.70;99.90
